createdAt,value
2022-08-05T00:02:22.194Z,19.10
2022-08-05T00:04:55.183Z,19.10
2022-08-05T00:07:59.009Z,19.10
2022-08-05T00:10:27.185Z,19.00
2022-08-05T00:12:56.636Z,19.00
2022-08-05T00:15:55.932Z,18.90
2022-08-05T00:18:25.491Z,18.90
2022-08-05T00:20:57.883Z,18.90
2022-08-05T00:23:44.617Z,19.00
2022-08-05T00:26:19.560Z,19.10
2022-08-05T00:28:46.037Z,19.10
2022-08-05T00:31:13.632Z,19.00
2022-08-05T00:34:56.662Z,19.10
2022-08-05T00:37:50.891Z,19.00
2022-08-05T00:40:26.991Z,19.10
2022-08-05T00:42:54.084Z,19.10
2022-08-05T00:45:28.120Z,19.10
2022-08-05T00:48:06.735Z,19.10
2022-08-05T00:50:33.255Z,19.00
2022-08-05T00:52:59.488Z,19.10
2022-08-05T00:55:34.225Z,19.00
2022-08-05T00:58:11.758Z,19.00
2022-08-05T01:00:38.313Z,18.90
2022-08-05T01:03:07.577Z,18.80
2022-08-05T01:05:34.510Z,18.90
2022-08-05T01:08:39.202Z,18.80
2022-08-05T01:11:22.613Z,18.70
2022-08-05T01:14:11.643Z,18.70
2022-08-05T01:16:52.848Z,18.60
2022-08-05T01:20:11.218Z,18.50
2022-08-05T01:26:21.954Z,18.50
2022-08-05T01:29:05.241Z,18.50
2022-08-05T01:31:52.310Z,18.40
2022-08-05T01:35:10.675Z,18.40
2022-08-05T01:37:51.874Z,18.30
2022-08-05T01:40:27.969Z,18.20
2022-08-05T01:42:56.496Z,18.20
2022-08-05T01:45:24.691Z,18.20
2022-08-05T01:47:54.497Z,18.10
2022-08-05T01:50:28.586Z,18.10
2022-08-05T01:52:59.946Z,18.10
2022-08-05T01:55:26.556Z,17.90
2022-08-05T01:58:09.365Z,17.90
2022-08-05T02:00:56.873Z,17.90
2022-08-05T02:03:46.499Z,17.80
2022-08-05T02:06:37.191Z,17.80
2022-08-05T02:09:05.932Z,17.80
2022-08-05T02:12:02.152Z,17.70
2022-08-05T02:14:32.845Z,17.60
2022-08-05T02:17:07.354Z,17.50
2022-08-05T02:19:36.341Z,17.40
2022-08-05T02:22:26.971Z,17.40
2022-08-05T02:25:03.640Z,17.30
2022-08-05T02:27:57.682Z,17.20
2022-08-05T02:30:30.273Z,17.30
2022-08-05T02:32:56.753Z,17.30
2022-08-05T02:35:28.304Z,17.20
2022-08-05T02:38:00.348Z,17.20
2022-08-05T02:40:28.732Z,17.10
2022-08-05T02:42:55.388Z,17.10
2022-08-05T02:45:24.023Z,17.10
2022-08-05T02:48:07.017Z,17.10
2022-08-05T02:50:44.102Z,17.00
2022-08-05T02:53:11.730Z,16.80
2022-08-05T02:55:54.225Z,16.80
2022-08-05T02:58:27.377Z,16.90
2022-08-05T03:00:56.727Z,17.10
2022-08-05T03:03:23.772Z,17.10
2022-08-05T03:06:56.650Z,17.20
2022-08-05T03:09:27.088Z,17.00
2022-08-05T03:12:05.888Z,17.00
2022-08-05T03:14:32.239Z,17.00
2022-08-05T03:16:59.231Z,16.90
2022-08-05T03:19:34.400Z,16.90
2022-08-05T03:22:16.345Z,16.80
2022-08-05T03:24:46.915Z,16.70
2022-08-05T03:27:13.427Z,16.70
2022-08-05T03:29:45.692Z,16.60
2022-08-05T03:32:34.102Z,16.70
2022-08-05T03:35:01.679Z,16.70
2022-08-05T03:37:30.907Z,16.70
2022-08-05T03:40:11.784Z,16.70
2022-08-05T03:42:51.439Z,16.60
2022-08-05T03:45:22.505Z,16.60
2022-08-05T03:47:50.837Z,16.60
2022-08-05T03:50:17.607Z,16.70
2022-08-05T03:55:52.150Z,17.30
2022-08-05T03:58:35.660Z,18.10
2022-08-05T04:01:02.089Z,19.70
2022-08-05T04:03:36.083Z,20.60
2022-08-05T04:06:06.292Z,21.60
2022-08-05T04:08:36.723Z,21.30
2022-08-05T04:11:06.861Z,21.60
2022-08-05T11:04:56.284Z,38.70
2022-08-05T11:07:33.305Z,38.80
2022-08-05T11:10:29.141Z,38.80
2022-08-05T11:12:57.600Z,39.10
2022-08-05T11:15:59.498Z,39.10
2022-08-05T11:18:29.958Z,38.90
2022-08-05T11:21:00.000Z,39.20
2022-08-05T11:27:17.058Z,39.20
2022-08-05T11:29:44.561Z,39.60
2022-08-05T11:32:30.555Z,39.40
2022-08-05T11:34:57.443Z,39.70
2022-08-05T11:38:57.748Z,39.90
2022-08-05T11:41:58.175Z,39.30
2022-08-05T11:44:53.174Z,39.70
2022-08-05T11:47:49.962Z,39.70
2022-08-05T11:50:18.384Z,39.50
2022-08-05T11:52:49.002Z,38.80
2022-08-05T11:55:17.798Z,38.50
2022-08-05T11:58:11.053Z,38.90
2022-08-05T12:00:41.254Z,38.20
2022-08-05T12:03:28.889Z,38.40
2022-08-05T12:06:10.064Z,38.80
2022-08-05T12:08:51.105Z,38.60
2022-08-05T12:11:28.338Z,38.40
2022-08-05T12:14:10.460Z,38.40
2022-08-05T12:16:39.864Z,38.70
2022-08-05T12:19:08.505Z,39.10
2022-08-05T12:21:39.125Z,38.80
2022-08-05T12:24:11.640Z,38.90
2022-08-05T12:26:44.248Z,38.80
2022-08-05T12:29:16.112Z,38.70
2022-08-05T12:31:54.533Z,38.70
2022-08-05T12:34:23.558Z,38.70
2022-08-05T12:36:51.650Z,38.70
2022-08-05T12:39:23.677Z,38.40
2022-08-05T12:41:59.799Z,37.80
2022-08-05T12:44:33.179Z,38.60
2022-08-05T12:47:03.935Z,38.30
2022-08-05T12:50:32.736Z,38.20
2022-08-05T12:52:59.371Z,38.60
2022-08-05T12:55:28.404Z,38.50
2022-08-05T12:58:51.342Z,38.60
2022-08-05T13:01:59.955Z,39.00
2022-08-05T13:04:36.464Z,38.70
2022-08-05T13:07:16.165Z,38.80
2022-08-05T13:10:10.041Z,38.90
2022-08-05T13:12:57.418Z,39.00
2022-08-05T13:15:41.749Z,38.70
2022-08-05T13:18:20.552Z,38.60
2022-08-05T13:20:49.178Z,38.60
2022-08-05T13:23:22.267Z,38.50
2022-08-05T13:25:52.744Z,38.30
2022-08-05T13:28:27.348Z,38.50
2022-08-05T13:30:55.123Z,38.70
2022-08-05T13:34:22.197Z,38.60
2022-08-05T13:36:55.056Z,38.60
2022-08-05T13:40:12.828Z,38.60
2022-08-05T13:42:44.809Z,38.60
2022-08-05T13:45:12.212Z,38.60
2022-08-05T13:48:09.936Z,37.60
2022-08-05T13:51:36.525Z,38.20
2022-08-05T13:54:12.397Z,38.20
2022-08-05T13:56:45.587Z,38.00
2022-08-05T13:59:21.459Z,37.60
2022-08-05T14:01:58.166Z,37.60
2022-08-05T14:05:00.826Z,37.70
2022-08-05T14:07:59.634Z,38.20
2022-08-05T14:10:35.275Z,38.10
2022-08-05T14:13:02.748Z,38.50
2022-08-05T14:16:08.274Z,38.40
2022-08-05T14:18:39.414Z,38.20
2022-08-05T14:22:06.763Z,38.30
2022-08-05T14:24:37.301Z,38.20
2022-08-05T14:27:17.470Z,38.30
2022-08-05T14:29:44.787Z,38.50
2022-08-05T14:32:27.412Z,38.10
2022-08-05T14:34:54.637Z,38.10
2022-08-05T14:37:24.173Z,38.20
2022-08-05T14:40:14.254Z,37.60
2022-08-05T14:42:43.982Z,37.70
2022-08-05T14:45:11.419Z,37.90
2022-08-05T14:48:05.295Z,37.90
2022-08-05T14:50:36.141Z,37.60
2022-08-05T14:53:13.527Z,37.50
2022-08-05T14:55:44.155Z,37.50
2022-08-05T14:58:19.398Z,37.10
2022-08-05T15:00:59.542Z,37.00
2022-08-05T15:03:33.316Z,37.10
2022-08-05T15:06:13.217Z,37.60
2022-08-05T15:09:01.563Z,37.50
2022-08-05T15:11:50.829Z,37.40
2022-08-05T15:14:33.367Z,37.60
2022-08-05T15:17:05.095Z,37.50
2022-08-05T15:19:36.353Z,37.30
2022-08-05T15:22:08.517Z,37.10
2022-08-05T15:24:35.314Z,36.80
2022-08-05T15:27:09.114Z,36.60
2022-08-05T15:29:42.027Z,36.70
2022-08-05T15:32:09.584Z,36.70
2022-08-05T15:34:35.879Z,36.80
2022-08-05T15:37:06.775Z,36.80
2022-08-05T15:41:03.339Z,36.80
2022-08-05T15:43:49.096Z,36.70
2022-08-05T15:46:15.961Z,36.20
2022-08-05T15:48:52.483Z,36.10
2022-08-05T15:52:12.467Z,36.10
2022-08-05T15:54:46.712Z,36.10
2022-08-05T15:57:16.864Z,36.10
2022-08-05T15:59:43.206Z,36.10
2022-08-05T16:02:14.767Z,36.20
2022-08-05T16:04:47.570Z,36.10
2022-08-05T16:07:16.309Z,35.60
2022-08-05T16:09:45.569Z,35.60
2022-08-05T16:12:12.927Z,35.40
2022-08-05T16:14:43.223Z,35.20
2022-08-05T16:17:10.408Z,35.20
2022-08-05T16:20:04.468Z,35.00
2022-08-05T16:22:35.140Z,34.90
2022-08-05T16:25:08.099Z,34.60
2022-08-05T16:27:59.937Z,34.50
2022-08-05T16:30:32.994Z,34.30
2022-08-05T16:33:00.210Z,34.40
2022-08-05T16:35:28.585Z,34.20
2022-08-05T16:38:13.677Z,34.10
2022-08-05T16:40:52.164Z,34.00
2022-08-05T16:43:32.503Z,34.00
2022-08-05T16:46:03.734Z,33.70
2022-08-05T16:48:38.927Z,33.30
2022-08-05T16:51:10.087Z,33.00
2022-08-05T16:54:06.299Z,32.70
2022-08-05T16:56:41.719Z,32.60
2022-08-05T16:59:10.370Z,32.50
2022-08-05T17:01:54.673Z,32.40
2022-08-05T17:04:26.530Z,32.20
2022-08-05T17:06:54.825Z,32.10
2022-08-05T17:09:21.134Z,32.00
2022-08-05T17:11:50.840Z,31.90
2022-08-05T17:14:22.334Z,31.80
2022-08-05T17:17:02.695Z,31.60
2022-08-05T17:19:29.237Z,31.50
2022-08-05T17:21:58.244Z,31.40
2022-08-05T17:24:36.479Z,31.30
2022-08-05T17:27:08.663Z,31.20
2022-08-05T17:29:43.332Z,31.10
2022-08-05T17:32:17.078Z,31.00
2022-08-05T17:34:47.878Z,30.90
2022-08-05T17:37:41.232Z,30.60
2022-08-05T17:40:14.248Z,30.30
2022-08-05T17:42:50.579Z,30.20
2022-08-05T17:45:20.612Z,29.90
2022-08-05T17:47:54.350Z,29.50
2022-08-05T17:50:28.934Z,29.10
2022-08-05T17:53:02.172Z,28.70
2022-08-05T17:55:37.416Z,28.40
2022-08-05T17:58:09.861Z,28.10
2022-08-05T18:00:44.301Z,27.80
2022-08-05T18:03:58.724Z,27.50
2022-08-05T18:06:38.865Z,27.20
2022-08-05T18:09:05.124Z,26.90
2022-08-05T18:11:37.685Z,26.70
2022-08-05T18:14:06.731Z,26.60
2022-08-05T18:16:34.621Z,26.40
2022-08-05T18:19:01.757Z,26.30
2022-08-05T18:22:08.611Z,26.10
2022-08-05T18:24:40.304Z,26.00
2022-08-05T18:27:18.304Z,25.80
2022-08-05T18:29:52.024Z,25.60
2022-08-05T18:32:27.957Z,25.50
2022-08-05T18:34:55.369Z,25.40
2022-08-05T18:37:34.132Z,25.30
2022-08-05T18:40:33.801Z,25.20
2022-08-05T18:44:33.125Z,25.00
2022-08-05T18:47:03.395Z,24.80
2022-08-05T18:51:49.557Z,25.00
2022-08-05T18:54:36.734Z,26.60
2022-08-05T18:57:09.419Z,27.60
2022-08-05T19:00:02.578Z,27.60
2022-08-05T19:02:31.947Z,27.90
2022-08-05T19:06:05.482Z,28.10
2022-08-05T19:08:42.021Z,28.20
2022-08-05T19:11:08.278Z,27.90
2022-08-05T19:13:36.780Z,27.80
2022-08-05T19:16:25.366Z,27.80
2022-08-05T19:18:57.176Z,27.70
2022-08-05T19:21:27.529Z,27.90
2022-08-05T19:24:07.973Z,27.80
2022-08-05T19:26:36.993Z,27.60
2022-08-05T19:29:35.486Z,27.60
2022-08-05T19:32:06.167Z,27.50
2022-08-05T19:34:42.059Z,27.50
2022-08-05T19:37:30.066Z,27.30
2022-08-05T19:40:01.927Z,27.30
2022-08-05T19:42:36.031Z,27.10
2022-08-05T19:45:03.271Z,27.10
2022-08-05T19:47:37.242Z,27.20
2022-08-05T19:50:04.300Z,27.00
2022-08-05T19:52:33.113Z,27.00
2022-08-05T19:55:07.220Z,26.90
2022-08-05T19:58:53.815Z,26.80
2022-08-05T20:01:24.723Z,26.80
2022-08-05T20:03:57.227Z,26.60
2022-08-05T20:06:29.271Z,26.60
2022-08-05T20:09:14.049Z,26.60
2022-08-05T20:11:41.826Z,26.50
2022-08-05T20:14:26.771Z,26.40
2022-08-05T20:17:01.575Z,26.30
2022-08-05T20:19:36.337Z,26.30
2022-08-05T20:22:09.839Z,26.10
2022-08-05T20:24:38.294Z,26.00
2022-08-05T20:27:11.078Z,26.20
2022-08-05T20:29:40.481Z,26.10
2022-08-05T20:32:07.309Z,25.90
2022-08-05T20:34:36.690Z,25.80
2022-08-05T20:37:03.045Z,25.80
2022-08-05T20:39:36.401Z,25.80
2022-08-05T20:42:05.550Z,25.90
2022-08-05T20:44:37.831Z,25.80
2022-08-05T20:47:07.529Z,25.70
2022-08-05T20:49:39.604Z,25.70
2022-08-05T20:52:07.641Z,25.60
2022-08-05T20:54:43.329Z,25.50
2022-08-05T20:57:43.393Z,25.50
2022-08-05T21:00:40.868Z,25.40
2022-08-05T21:03:20.713Z,25.30
2022-08-05T21:05:54.388Z,25.10
2022-08-05T21:08:33.125Z,25.20
2022-08-05T21:11:12.075Z,25.20
2022-08-05T21:13:47.431Z,25.10
2022-08-05T21:16:23.074Z,25.10
2022-08-05T21:19:00.269Z,25.10
2022-08-05T21:21:39.131Z,24.90
2022-08-05T21:24:12.819Z,24.90
2022-08-05T21:26:40.130Z,24.90
2022-08-05T21:29:12.628Z,24.80
2022-08-05T21:31:45.630Z,25.00
2022-08-05T21:34:12.191Z,25.10
2022-08-05T21:36:42.456Z,25.00
2022-08-05T21:39:17.014Z,25.00
2022-08-05T21:42:02.044Z,24.90
2022-08-05T21:44:31.995Z,24.80
2022-08-05T21:46:58.740Z,24.70
2022-08-05T21:49:58.566Z,24.70
2022-08-05T21:52:28.371Z,24.70
2022-08-05T21:54:56.534Z,24.70
2022-08-05T21:57:31.491Z,24.70
2022-08-05T22:00:06.303Z,24.60
2022-08-05T22:02:34.098Z,24.50
2022-08-05T22:05:19.112Z,24.50
2022-08-05T22:08:01.962Z,26.30
2022-08-05T22:10:31.097Z,24.50
2022-08-05T22:12:59.067Z,24.60
2022-08-05T22:16:04.631Z,24.50
2022-08-05T22:18:35.133Z,24.60
2022-08-05T22:21:03.965Z,24.60
2022-08-05T22:24:02.815Z,24.50
2022-08-05T22:26:53.556Z,24.40
2022-08-05T22:29:26.867Z,24.40
2022-08-05T22:32:02.626Z,24.10
2022-08-05T22:34:38.925Z,23.70
2022-08-05T22:37:14.736Z,23.50
2022-08-05T22:39:41.108Z,23.50
2022-08-05T22:42:15.323Z,23.10
2022-08-05T22:44:48.424Z,23.10
2022-08-05T22:47:30.107Z,23.00
2022-08-05T22:50:22.782Z,23.00
2022-08-05T22:52:53.565Z,22.90
2022-08-05T22:55:21.390Z,23.00
2022-08-05T22:57:49.848Z,22.90
2022-08-05T23:00:18.341Z,23.00
2022-08-05T23:02:49.068Z,22.90
2022-08-05T23:05:17.332Z,22.90
2022-08-05T23:07:48.680Z,22.90
2022-08-05T23:10:19.685Z,22.80
2022-08-05T23:12:47.582Z,22.90
2022-08-05T23:15:17.936Z,22.80
2022-08-05T23:18:01.601Z,22.70
2022-08-05T23:20:37.436Z,22.70
2022-08-05T23:23:08.009Z,22.60
2022-08-05T23:25:51.047Z,22.60
2022-08-05T23:28:28.866Z,22.60
2022-08-05T23:31:16.999Z,22.60
2022-08-05T23:34:05.322Z,22.60
2022-08-05T23:36:44.851Z,20.80
2022-08-05T23:39:17.599Z,22.50
2022-08-05T23:41:59.026Z,22.50
2022-08-05T23:44:27.930Z,22.50
2022-08-05T23:47:00.238Z,22.50
2022-08-05T23:49:35.928Z,22.40
2022-08-05T23:52:22.465Z,22.40
2022-08-05T23:54:52.957Z,22.40
2022-08-05T23:57:20.123Z,22.30
